sensor_id;sensor_type;location;lat;lon;timestamp;temperature;humidity
55091;DHT22;40985;53.180;5.800;2023-07-22T00:01:14;12.00;99.90
55091;DHT22;40985;53.180;5.800;2023-07-22T00:03:41;12.00;99.90
55091;DHT22;40985;53.180;5.800;2023-07-22T00:06:08;12.00;99.90
55091;DHT22;40985;53.180;5.800;2023-07-22T00:08:36;11.90;99.90
55091;DHT22;40985;53.180;5.800;2023-07-22T00:11:03;11.90;99.90
55091;DHT22;40985;53.180;5.800;2023-07-22T00:13:28;11.90;99.90
55091;DHT22;40985;53.180;5.800;2023-07-22T00:15:55;11.90;99.90
55091;DHT22;40985;53.180;5.800;2023-07-22T00:18:21;12.00;99.90
55091;DHT22;40985;53.180;5.800;2023-07-22T00:20:47;12.00;99.90
55091;DHT22;40985;53.180;5.800;2023-07-22T00:23:13;12.00;99.90
55091;DHT22;40985;53.180;5.800;2023-07-22T00:25:41;12.00;99.90
55091;DHT22;40985;53.180;5.800;2023-07-22T00:28:06;12.00;99.90
55091;DHT22;40985;53.180;5.800;2023-07-22T00:30:32;12.00;99.90
55091;DHT22;40985;53.180;5.800;2023-07-22T00:32:58;12.00;99.90
55091;DHT22;40985;53.180;5.800;2023-07-22T00:35:24;11.90;99.90
55091;DHT22;40985;53.180;5.800;2023-07-22T00:37:49;11.90;99.90
55091;DHT22;40985;53.180;5.800;2023-07-22T00:40:15;11.90;99.90
55091;DHT22;40985;53.180;5.800;2023-07-22T00:42:41;11.90;99.90
55091;DHT22;40985;53.180;5.800;2023-07-22T00:45:07;11.90;99.90
55091;DHT22;40985;53.180;5.800;2023-07-22T00:47:34;11.90;99.90
55091;DHT22;40985;53.180;5.800;2023-07-22T00:50:04;11.90;99.90
55091;DHT22;40985;53.180;5.800;2023-07-22T00:52:35;11.90;99.90
55091;DHT22;40985;53.180;5.800;2023-07-22T00:55:01;11.90;99.90
55091;DHT22;40985;53.180;5.800;2023-07-22T00:57:27;11.90;99.90
55091;DHT22;40985;53.180;5.800;2023-07-22T00:59:53;11.90;99.90
55091;DHT22;40985;53.180;5.800;2023-07-22T01:02:19;11.80;99.90
55091;DHT22;40985;53.180;5.800;2023-07-22T01:04:46;11.80;99.90
55091;DHT22;40985;53.180;5.800;2023-07-22T01:07:12;11.70;99.90
55091;DHT22;40985;53.180;5.800;2023-07-22T01:09:39;11.60;99.90
55091;DHT22;40985;53.180;5.800;2023-07-22T01:12:05;11.50;99.90
55091;DHT22;40985;53.180;5.800;2023-07-22T01:14:33;11.50;99.90
55091;DHT22;40985;53.180;5.800;2023-07-22T01:17:01;11.40;99.90
55091;DHT22;40985;53.180;5.800;2023-07-22T01:19:28;11.40;99.90
55091;DHT22;40985;53.180;5.800;2023-07-22T01:21:54;11.40;99.90
55091;DHT22;40985;53.180;5.800;2023-07-22T01:24:21;11.30;99.90
55091;DHT22;40985;53.180;5.800;2023-07-22T01:26:47;11.30;99.90
55091;DHT22;40985;53.180;5.800;2023-07-22T01:29:13;11.20;99.90
55091;DHT22;40985;53.180;5.800;2023-07-22T01:31:39;11.20;99.90
55091;DHT22;40985;53.180;5.800;2023-07-22T01:34:05;11.10;99.90
55091;DHT22;40985;53.180;5.800;2023-07-22T01:36:31;11.10;99.90
55091;DHT22;40985;53.180;5.800;2023-07-22T01:38:56;11.00;99.90
55091;DHT22;40985;53.180;5.800;2023-07-22T01:41:22;11.00;99.90
55091;DHT22;40985;53.180;5.800;2023-07-22T01:43:48;11.00;99.90
55091;DHT22;40985;53.180;5.800;2023-07-22T01:46:14;11.00;99.90
55091;DHT22;40985;53.180;5.800;2023-07-22T01:48:40;10.90;99.90
55091;DHT22;40985;53.180;5.800;2023-07-22T01:51:05;10.90;99.90
55091;DHT22;40985;53.180;5.800;2023-07-22T01:53:31;10.90;99.90
55091;DHT22;40985;53.180;5.800;2023-07-22T01:55:57;10.80;99.90
55091;DHT22;40985;53.180;5.800;2023-07-22T01:58:23;10.80;99.90
55091;DHT22;40985;53.180;5.800;2023-07-22T02:00:51;10.80;99.90
55091;DHT22;40985;53.180;5.800;2023-07-22T02:03:17;10.80;99.90
55091;DHT22;40985;53.180;5.800;2023-07-22T02:05:43;10.80;99.90
55091;DHT22;40985;53.180;5.800;2023-07-22T02:08:09;10.80;99.90
55091;DHT22;40985;53.180;5.800;2023-07-22T02:10:35;10.80;99.90
55091;DHT22;40985;53.180;5.800;2023-07-22T02:13:01;10.70;99.90
55091;DHT22;40985;53.180;5.800;2023-07-22T02:15:31;10.70;99.90
55091;DHT22;40985;53.180;5.800;2023-07-22T02:17:57;10.70;99.90
55091;DHT22;40985;53.180;5.800;2023-07-22T02:20:23;10.70;99.90
55091;DHT22;40985;53.180;5.800;2023-07-22T02:22:49;10.70;99.90
55091;DHT22;40985;53.180;5.800;2023-07-22T02:25:15;10.60;99.90
55091;DHT22;40985;53.180;5.800;2023-07-22T02:27:41;10.60;99.90
55091;DHT22;40985;53.180;5.800;2023-07-22T02:30:07;10.60;99.90
55091;DHT22;40985;53.180;5.800;2023-07-22T02:32:38;10.50;99.90
55091;DHT22;40985;53.180;5.800;2023-07-22T02:35:06;10.60;99.90
55091;DHT22;40985;53.180;5.800;2023-07-22T02:37:32;10.50;99.90
55091;DHT22;40985;53.180;5.800;2023-07-22T02:39:58;10.50;99.90
55091;DHT22;40985;53.180;5.800;2023-07-22T02:42:24;10.50;99.90
55091;DHT22;40985;53.180;5.800;2023-07-22T02:44:49;10.50;99.90
55091;DHT22;40985;53.180;5.800;2023-07-22T02:47:15;10.40;99.90
55091;DHT22;40985;53.180;5.800;2023-07-22T02:49:41;10.40;99.90
55091;DHT22;40985;53.180;5.800;2023-07-22T02:52:06;10.40;99.90
55091;DHT22;40985;53.180;5.800;2023-07-22T02:54:39;10.40;99.90
55091;DHT22;40985;53.180;5.800;2023-07-22T02:57:05;10.40;99.90
55091;DHT22;40985;53.180;5.800;2023-07-22T02:59:32;10.40;99.90
55091;DHT22;40985;53.180;5.800;2023-07-22T03:01:58;10.40;99.90
55091;DHT22;40985;53.180;5.800;2023-07-22T03:04:24;10.50;99.90
55091;DHT22;40985;53.180;5.800;2023-07-22T03:06:50;10.50;99.90
55091;DHT22;40985;53.180;5.800;2023-07-22T03:09:15;10.60;99.90
55091;DHT22;40985;53.180;5.800;2023-07-22T03:11:41;10.60;99.90
55091;DHT22;40985;53.180;5.800;2023-07-22T03:14:07;10.60;99.90
55091;DHT22;40985;53.180;5.800;2023-07-22T03:16:32;10.60;99.90
55091;DHT22;40985;53.180;5.800;2023-07-22T03:18:58;10.70;99.90
55091;DHT22;40985;53.180;5.800;2023-07-22T03:21:24;10.70;99.90
55091;DHT22;40985;53.180;5.800;2023-07-22T03:23:49;10.70;99.90
55091;DHT22;40985;53.180;5.800;2023-07-22T03:26:16;10.80;99.90
55091;DHT22;40985;53.180;5.800;2023-07-22T03:28:41;10.70;99.90
55091;DHT22;40985;53.180;5.800;2023-07-22T03:31:07;10.80;99.90
55091;DHT22;40985;53.180;5.800;2023-07-22T03:33:36;10.80;99.90
55091;DHT22;40985;53.180;5.800;2023-07-22T03:36:01;10.80;99.90
55091;DHT22;40985;53.180;5.800;2023-07-22T03:38:27;10.90;99.90
55091;DHT22;40985;53.180;5.800;2023-07-22T03:40:52;10.90;99.90
55091;DHT22;40985;53.180;5.800;2023-07-22T03:43:18;10.90;99.90
55091;DHT22;40985;53.180;5.800;2023-07-22T03:45:44;10.90;99.90
55091;DHT22;40985;53.180;5.800;2023-07-22T03:48:10;10.90;99.90
55091;DHT22;40985;53.180;5.800;2023-07-22T03:50:35;11.00;99.90
55091;DHT22;40985;53.180;5.800;2023-07-22T03:53:01;11.00;99.90
55091;DHT22;40985;53.180;5.800;2023-07-22T03:55:27;11.10;99.90
55091;DHT22;40985;53.180;5.800;2023-07-22T03:57:52;11.10;99.90
55091;DHT22;40985;53.180;5.800;2023-07-22T04:00:20;11.10;99.90
55091;DHT22;40985;53.180;5.800;2023-07-22T04:02:46;11.20;99.90
55091;DHT22;40985;53.180;5.800;2023-07-22T04:05:12;11.20;99.90
55091;DHT22;40985;53.180;5.800;2023-07-22T04:07:38;11.20;99.90
55091;DHT22;40985;53.180;5.800;2023-07-22T04:10:04;11.30;99.90
55091;DHT22;40985;53.180;5.800;2023-07-22T04:12:30;11.30;99.90
55091;DHT22;40985;53.180;5.800;2023-07-22T04:14:56;11.40;99.90
55091;DHT22;40985;53.180;5.800;2023-07-22T04:17:22;11.40;99.90
55091;DHT22;40985;53.180;5.800;2023-07-22T04:19:47;11.50;99.90
55091;DHT22;40985;53.180;5.800;2023-07-22T04:22:13;11.50;99.90
55091;DHT22;40985;53.180;5.800;2023-07-22T04:24:39;11.60;99.90
55091;DHT22;40985;53.180;5.800;2023-07-22T04:27:04;11.70;99.90
55091;DHT22;40985;53.180;5.800;2023-07-22T04:29:30;11.80;99.90
55091;DHT22;40985;53.180;5.800;2023-07-22T04:31:57;11.80;99.90
55091;DHT22;40985;53.180;5.800;2023-07-22T04:34:24;11.90;99.90
55091;DHT22;40985;53.180;5.800;2023-07-22T04:36:51;11.90;99.90
55091;DHT22;40985;53.180;5.800;2023-07-22T04:39:16;12.00;99.90
55091;DHT22;40985;53.180;5.800;2023-07-22T04:41:43;12.10;99.90
55091;DHT22;40985;53.180;5.800;2023-07-22T04:44:08;12.10;99.90
55091;DHT22;40985;53.180;5.800;2023-07-22T04:46:34;12.20;99.90
55091;DHT22;40985;53.180;5.800;2023-07-22T04:49:01;12.20;99.90
55091;DHT22;40985;53.180;5.800;2023-07-22T04:51:26;12.20;99.90
55091;DHT22;40985;53.180;5.800;2023-07-22T04:53:52;12.30;99.90
55091;DHT22;40985;53.180;5.800;2023-07-22T04:56:18;12.30;99.90
55091;DHT22;40985;53.180;5.800;2023-07-22T04:58:44;12.40;99.90
55091;DHT22;40985;53.180;5.800;2023-07-22T05:01:09;12.50;99.90
55091;DHT22;40985;53.180;5.800;2023-07-22T05:03:35;12.50;99.90
55091;DHT22;40985;53.180;5.800;2023-07-22T05:06:01;12.60;99.90
55091;DHT22;40985;53.180;5.800;2023-07-22T05:08:27;12.60;99.90
55091;DHT22;40985;53.180;5.800;2023-07-22T05:10:53;12.60;99.90
55091;DHT22;40985;53.180;5.800;2023-07-22T05:13:19;12.70;99.90
55091;DHT22;40985;53.180;5.800;2023-07-22T05:15:44;12.70;99.90
55091;DHT22;40985;53.180;5.800;2023-07-22T05:18:10;12.80;99.90
55091;DHT22;40985;53.180;5.800;2023-07-22T05:20:38;12.90;99.90
55091;DHT22;40985;53.180;5.800;2023-07-22T05:23:04;12.90;99.90
55091;DHT22;40985;53.180;5.800;2023-07-22T05:25:30;12.90;99.90
55091;DHT22;40985;53.180;5.800;2023-07-22T05:27:55;13.00;99.90
55091;DHT22;40985;53.180;5.800;2023-07-22T05:30:21;13.10;99.90
55091;DHT22;40985;53.180;5.800;2023-07-22T05:32:47;13.10;99.90
55091;DHT22;40985;53.180;5.800;2023-07-22T05:35:12;13.20;99.90
55091;DHT22;40985;53.180;5.800;2023-07-22T05:37:38;13.20;99.90
55091;DHT22;40985;53.180;5.800;2023-07-22T05:40:04;13.30;99.90
55091;DHT22;40985;53.180;5.800;2023-07-22T05:42:30;13.40;99.90
55091;DHT22;40985;53.180;5.800;2023-07-22T05:44:57;13.40;99.90
55091;DHT22;40985;53.180;5.800;2023-07-22T05:47:23;13.60;99.90
55091;DHT22;40985;53.180;5.800;2023-07-22T05:49:49;13.60;99.90
55091;DHT22;40985;53.180;5.800;2023-07-22T05:52:14;13.70;99.90
55091;DHT22;40985;53.180;5.800;2023-07-22T05:54:40;13.80;99.90
55091;DHT22;40985;53.180;5.800;2023-07-22T05:57:06;13.90;99.90
55091;DHT22;40985;53.180;5.800;2023-07-22T05:59:32;14.00;99.90
55091;DHT22;40985;53.180;5.800;2023-07-22T06:01:57;14.00;99.90
55091;DHT22;40985;53.180;5.800;2023-07-22T06:04:23;14.10;99.90
55091;DHT22;40985;53.180;5.800;2023-07-22T06:06:48;14.20;99.90
55091;DHT22;40985;53.180;5.800;2023-07-22T06:09:14;14.30;99.90
55091;DHT22;40985;53.180;5.800;2023-07-22T06:11:40;14.40;99.90
55091;DHT22;40985;53.180;5.800;2023-07-22T06:14:06;14.50;99.90
55091;DHT22;40985;53.180;5.800;2023-07-22T06:16:32;14.50;99.90
55091;DHT22;40985;53.180;5.800;2023-07-22T06:18:58;14.60;99.90
55091;DHT22;40985;53.180;5.800;2023-07-22T06:21:23;14.60;99.90
55091;DHT22;40985;53.180;5.800;2023-07-22T06:23:50;14.70;99.90
55091;DHT22;40985;53.180;5.800;2023-07-22T06:26:16;14.60;99.90
55091;DHT22;40985;53.180;5.800;2023-07-22T06:28:41;14.70;99.90
55091;DHT22;40985;53.180;5.800;2023-07-22T06:31:07;14.70;99.90
55091;DHT22;40985;53.180;5.800;2023-07-22T06:33:33;14.70;99.90
55091;DHT22;40985;53.180;5.800;2023-07-22T06:35:59;14.70;99.90
55091;DHT22;40985;53.180;5.800;2023-07-22T06:38:24;14.80;99.90
55091;DHT22;40985;53.180;5.800;2023-07-22T06:40:52;14.90;99.90
55091;DHT22;40985;53.180;5.800;2023-07-22T06:43:18;15.00;99.90
55091;DHT22;40985;53.180;5.800;2023-07-22T06:45:44;15.10;99.90
55091;DHT22;40985;53.180;5.800;2023-07-22T06:48:10;15.10;99.90
55091;DHT22;40985;53.180;5.800;2023-07-22T06:50:35;15.20;99.90
55091;DHT22;40985;53.180;5.800;2023-07-22T06:53:01;15.20;99.90
55091;DHT22;40985;53.180;5.800;2023-07-22T06:55:27;15.30;99.90
55091;DHT22;40985;53.180;5.800;2023-07-22T06:57:55;15.40;99.90
55091;DHT22;40985;53.180;5.800;2023-07-22T07:00:21;15.40;99.90
55091;DHT22;40985;53.180;5.800;2023-07-22T07:02:47;15.50;99.90
55091;DHT22;40985;53.180;5.800;2023-07-22T07:05:13;15.70;99.90
55091;DHT22;40985;53.180;5.800;2023-07-22T07:07:38;15.80;99.90
55091;DHT22;40985;53.180;5.800;2023-07-22T07:10:05;15.80;99.90
55091;DHT22;40985;53.180;5.800;2023-07-22T07:12:31;15.80;99.90
55091;DHT22;40985;53.180;5.800;2023-07-22T07:14:57;15.70;99.90
55091;DHT22;40985;53.180;5.800;2023-07-22T07:17:22;15.70;99.90
55091;DHT22;40985;53.180;5.800;2023-07-22T07:19:48;15.70;99.90
55091;DHT22;40985;53.180;5.800;2023-07-22T07:22:14;15.60;99.90
55091;DHT22;40985;53.180;5.800;2023-07-22T07:24:40;15.60;99.90
55091;DHT22;40985;53.180;5.800;2023-07-22T07:27:05;15.70;99.90
55091;DHT22;40985;53.180;5.800;2023-07-22T07:29:31;15.70;99.90
55091;DHT22;40985;53.180;5.800;2023-07-22T07:31:57;15.70;99.90
55091;DHT22;40985;53.180;5.800;2023-07-22T07:34:22;15.80;99.90
55091;DHT22;40985;53.180;5.800;2023-07-22T07:36:48;15.90;99.90
55091;DHT22;40985;53.180;5.800;2023-07-22T07:39:14;16.00;99.90
55091;DHT22;40985;53.180;5.800;2023-07-22T07:41:40;16.20;99.90
55091;DHT22;40985;53.180;5.800;2023-07-22T07:44:05;16.40;99.90
55091;DHT22;40985;53.180;5.800;2023-07-22T07:46:31;16.50;99.90
55091;DHT22;40985;53.180;5.800;2023-07-22T07:49:01;16.70;99.90
55091;DHT22;40985;53.180;5.800;2023-07-22T07:51:28;16.80;99.90
55091;DHT22;40985;53.180;5.800;2023-07-22T07:53:55;16.90;99.90
55091;DHT22;40985;53.180;5.800;2023-07-22T07:56:22;16.90;99.90
55091;DHT22;40985;53.180;5.800;2023-07-22T07:58:49;16.90;99.90
55091;DHT22;40985;53.180;5.800;2023-07-22T08:01:15;16.90;99.90
55091;DHT22;40985;53.180;5.800;2023-07-22T08:03:42;17.00;99.90
55091;DHT22;40985;53.180;5.800;2023-07-22T08:06:09;16.90;99.90
55091;DHT22;40985;53.180;5.800;2023-07-22T08:08:35;16.80;99.90
55091;DHT22;40985;53.180;5.800;2023-07-22T08:11:05;16.80;99.90
55091;DHT22;40985;53.180;5.800;2023-07-22T08:13:31;16.70;99.90
55091;DHT22;40985;53.180;5.800;2023-07-22T08:16:03;16.60;99.90
55091;DHT22;40985;53.180;5.800;2023-07-22T08:18:30;16.60;99.90
55091;DHT22;40985;53.180;5.800;2023-07-22T08:20:56;16.60;99.90
55091;DHT22;40985;53.180;5.800;2023-07-22T08:23:22;16.50;99.90
55091;DHT22;40985;53.180;5.800;2023-07-22T08:25:48;16.40;99.90
55091;DHT22;40985;53.180;5.800;2023-07-22T08:28:15;16.30;99.90
55091;DHT22;40985;53.180;5.800;2023-07-22T08:30:40;16.10;99.90
55091;DHT22;40985;53.180;5.800;2023-07-22T08:33:10;16.00;99.90
55091;DHT22;40985;53.180;5.800;2023-07-22T08:35:39;15.90;99.90
55091;DHT22;40985;53.180;5.800;2023-07-22T08:38:06;15.90;99.90
55091;DHT22;40985;53.180;5.800;2023-07-22T08:40:40;15.80;99.90
55091;DHT22;40985;53.180;5.800;2023-07-22T08:43:08;15.70;99.90
55091;DHT22;40985;53.180;5.800;2023-07-22T08:45:36;15.80;99.90
55091;DHT22;40985;53.180;5.800;2023-07-22T08:48:04;15.70;99.90
55091;DHT22;40985;53.180;5.800;2023-07-22T08:50:41;15.80;99.90
55091;DHT22;40985;53.180;5.800;2023-07-22T08:53:10;15.80;99.90
55091;DHT22;40985;53.180;5.800;2023-07-22T08:55:38;15.90;99.90
55091;DHT22;40985;53.180;5.800;2023-07-22T08:58:10;15.90;99.90
55091;DHT22;40985;53.180;5.800;2023-07-22T09:00:37;16.10;99.90
55091;DHT22;40985;53.180;5.800;2023-07-22T09:03:04;16.20;99.90
55091;DHT22;40985;53.180;5.800;2023-07-22T09:05:32;16.20;99.90
55091;DHT22;40985;53.180;5.800;2023-07-22T09:07:59;16.10;99.90
55091;DHT22;40985;53.180;5.800;2023-07-22T09:10:27;16.00;99.90
55091;DHT22;40985;53.180;5.800;2023-07-22T09:12:53;15.80;99.90
55091;DHT22;40985;53.180;5.800;2023-07-22T09:15:20;15.60;99.90
55091;DHT22;40985;53.180;5.800;2023-07-22T09:17:46;15.50;99.90
55091;DHT22;40985;53.180;5.800;2023-07-22T09:20:13;15.40;99.90
55091;DHT22;40985;53.180;5.800;2023-07-22T09:22:47;15.40;99.90
55091;DHT22;40985;53.180;5.800;2023-07-22T09:25:21;15.40;99.90
55091;DHT22;40985;53.180;5.800;2023-07-22T09:27:49;15.60;99.90
55091;DHT22;40985;53.180;5.800;2023-07-22T09:32:52;15.70;99.90
55091;DHT22;40985;53.180;5.800;2023-07-22T09:35:18;15.80;99.90
55091;DHT22;40985;53.180;5.800;2023-07-22T09:37:45;15.80;99.90
55091;DHT22;40985;53.180;5.800;2023-07-22T09:40:21;15.80;99.90
55091;DHT22;40985;53.180;5.800;2023-07-22T09:42:52;15.90;99.90
55091;DHT22;40985;53.180;5.800;2023-07-22T09:45:19;15.90;99.90
55091;DHT22;40985;53.180;5.800;2023-07-22T09:47:47;15.90;99.90
55091;DHT22;40985;53.180;5.800;2023-07-22T09:50:20;16.00;99.90
55091;DHT22;40985;53.180;5.800;2023-07-22T09:52:53;16.00;99.90
55091;DHT22;40985;53.180;5.800;2023-07-22T09:55:21;16.00;99.90
55091;DHT22;40985;53.180;5.800;2023-07-22T09:57:51;16.00;99.90
55091;DHT22;40985;53.180;5.800;2023-07-22T10:00:17;16.10;99.90
55091;DHT22;40985;53.180;5.800;2023-07-22T10:02:47;16.10;99.90
55091;DHT22;40985;53.180;5.800;2023-07-22T10:05:20;16.20;99.90
55091;DHT22;40985;53.180;5.800;2023-07-22T10:07:48;16.20;99.90
55091;DHT22;40985;53.180;5.800;2023-07-22T10:10:19;16.00;99.90
55091;DHT22;40985;53.180;5.800;2023-07-22T10:12:46;16.10;99.90
55091;DHT22;40985;53.180;5.800;2023-07-22T10:15:13;16.00;99.90
55091;DHT22;40985;53.180;5.800;2023-07-22T10:17:44;16.00;99.90
55091;DHT22;40985;53.180;5.800;2023-07-22T10:20:11;16.00;99.90
55091;DHT22;40985;53.180;5.800;2023-07-22T10:22:47;15.90;99.90
55091;DHT22;40985;53.180;5.800;2023-07-22T10:25:17;15.80;99.90
55091;DHT22;40985;53.180;5.800;2023-07-22T10:27:44;15.80;99.90
55091;DHT22;40985;53.180;5.800;2023-07-22T10:30:14;15.80;99.90
55091;DHT22;40985;53.180;5.800;2023-07-22T10:32:42;15.70;99.90
55091;DHT22;40985;53.180;5.800;2023-07-22T10:35:10;15.70;99.90
55091;DHT22;40985;53.180;5.800;2023-07-22T10:37:38;15.70;99.90
55091;DHT22;40985;53.180;5.800;2023-07-22T10:40:26;15.70;99.90
55091;DHT22;40985;53.180;5.800;2023-07-22T10:43:04;15.70;99.90
55091;DHT22;40985;53.180;5.800;2023-07-22T10:45:32;15.80;99.90
55091;DHT22;40985;53.180;5.800;2023-07-22T10:48:08;15.80;99.90
55091;DHT22;40985;53.180;5.800;2023-07-22T10:50:51;15.90;99.90
55091;DHT22;40985;53.180;5.800;2023-07-22T11:01:22;15.80;99.90
55091;DHT22;40985;53.180;5.800;2023-07-22T11:04:28;15.90;99.90
55091;DHT22;40985;53.180;5.800;2023-07-22T11:06:59;15.80;99.90
55091;DHT22;40985;53.180;5.800;2023-07-22T11:14:33;15.60;99.90
55091;DHT22;40985;53.180;5.800;2023-07-22T11:17:00;15.60;99.90
55091;DHT22;40985;53.180;5.800;2023-07-22T11:19:27;15.60;99.90
55091;DHT22;40985;53.180;5.800;2023-07-22T11:21:54;15.60;99.90
55091;DHT22;40985;53.180;5.800;2023-07-22T11:24:22;15.60;99.90
55091;DHT22;40985;53.180;5.800;2023-07-22T11:26:48;15.50;99.90
55091;DHT22;40985;53.180;5.800;2023-07-22T11:29:15;15.50;99.90
55091;DHT22;40985;53.180;5.800;2023-07-22T11:31:45;15.50;99.90
55091;DHT22;40985;53.180;5.800;2023-07-22T11:34:23;15.50;99.90
55091;DHT22;40985;53.180;5.800;2023-07-22T11:36:50;15.50;99.90
55091;DHT22;40985;53.180;5.800;2023-07-22T11:39:22;15.50;99.90
55091;DHT22;40985;53.180;5.800;2023-07-22T11:41:48;15.60;99.90
55091;DHT22;40985;53.180;5.800;2023-07-22T11:44:19;15.70;99.90
55091;DHT22;40985;53.180;5.800;2023-07-22T11:47:05;15.70;99.90
55091;DHT22;40985;53.180;5.800;2023-07-22T11:49:38;15.80;99.90
55091;DHT22;40985;53.180;5.800;2023-07-22T11:52:11;16.00;99.90
55091;DHT22;40985;53.180;5.800;2023-07-22T11:54:41;16.00;99.90
55091;DHT22;40985;53.180;5.800;2023-07-22T11:57:17;16.10;99.90
55091;DHT22;40985;53.180;5.800;2023-07-22T11:59:50;16.30;99.90
55091;DHT22;40985;53.180;5.800;2023-07-22T12:02:20;16.30;99.90
55091;DHT22;40985;53.180;5.800;2023-07-22T12:07:32;16.60;99.90
55091;DHT22;40985;53.180;5.800;2023-07-22T12:10:00;16.90;99.90
55091;DHT22;40985;53.180;5.800;2023-07-22T12:12:42;17.20;99.90
55091;DHT22;40985;53.180;5.800;2023-07-22T12:15:18;17.40;99.90
55091;DHT22;40985;53.180;5.800;2023-07-22T12:17:59;17.70;99.90
55091;DHT22;40985;53.180;5.800;2023-07-22T12:20:27;17.90;99.90
55091;DHT22;40985;53.180;5.800;2023-07-22T12:22:54;18.30;99.90
55091;DHT22;40985;53.180;5.800;2023-07-22T12:25:20;18.60;99.90
55091;DHT22;40985;53.180;5.800;2023-07-22T12:27:45;18.70;99.90
55091;DHT22;40985;53.180;5.800;2023-07-22T12:30:11;18.50;99.90
55091;DHT22;40985;53.180;5.800;2023-07-22T12:32:38;18.20;99.90
55091;DHT22;40985;53.180;5.800;2023-07-22T12:35:04;18.00;99.90
55091;DHT22;40985;53.180;5.800;2023-07-22T12:37:30;17.90;99.90
55091;DHT22;40985;53.180;5.800;2023-07-22T12:39:56;17.70;99.90
55091;DHT22;40985;53.180;5.800;2023-07-22T12:42:22;17.60;99.90
55091;DHT22;40985;53.180;5.800;2023-07-22T12:44:48;17.60;99.90
55091;DHT22;40985;53.180;5.800;2023-07-22T12:47:13;17.50;99.90
55091;DHT22;40985;53.180;5.800;2023-07-22T12:49:39;17.40;99.90
55091;DHT22;40985;53.180;5.800;2023-07-22T12:52:05;17.20;99.90
55091;DHT22;40985;53.180;5.800;2023-07-22T12:54:37;17.10;99.90
55091;DHT22;40985;53.180;5.800;2023-07-22T12:57:03;17.00;99.90
55091;DHT22;40985;53.180;5.800;2023-07-22T12:59:29;16.80;99.90
55091;DHT22;40985;53.180;5.800;2023-07-22T13:01:55;16.60;99.90
55091;DHT22;40985;53.180;5.800;2023-07-22T13:04:20;16.10;99.90
55091;DHT22;40985;53.180;5.800;2023-07-22T13:06:46;15.90;99.90
55091;DHT22;40985;53.180;5.800;2023-07-22T13:09:12;15.80;99.90
55091;DHT22;40985;53.180;5.800;2023-07-22T13:11:37;15.70;99.90
55091;DHT22;40985;53.180;5.800;2023-07-22T13:14:03;15.80;99.90
55091;DHT22;40985;53.180;5.800;2023-07-22T13:16:29;15.80;99.90
55091;DHT22;40985;53.180;5.800;2023-07-22T13:18:54;15.90;99.90
55091;DHT22;40985;53.180;5.800;2023-07-22T13:21:20;16.00;99.90
55091;DHT22;40985;53.180;5.800;2023-07-22T13:23:46;16.00;99.90
55091;DHT22;40985;53.180;5.800;2023-07-22T13:26:12;16.10;99.90
55091;DHT22;40985;53.180;5.800;2023-07-22T13:28:37;16.10;99.90
55091;DHT22;40985;53.180;5.800;2023-07-22T13:31:03;16.20;99.90
55091;DHT22;40985;53.180;5.800;2023-07-22T13:33:29;16.30;99.90
55091;DHT22;40985;53.180;5.800;2023-07-22T13:35:54;16.20;99.90
55091;DHT22;40985;53.180;5.800;2023-07-22T13:38:20;16.20;99.90
55091;DHT22;40985;53.180;5.800;2023-07-22T13:40:46;16.20;99.90
55091;DHT22;40985;53.180;5.800;2023-07-22T13:43:12;16.30;99.90
55091;DHT22;40985;53.180;5.800;2023-07-22T13:45:37;16.30;99.90
55091;DHT22;40985;53.180;5.800;2023-07-22T13:48:03;16.30;99.90
55091;DHT22;40985;53.180;5.800;2023-07-22T13:50:30;16.30;99.90
55091;DHT22;40985;53.180;5.800;2023-07-22T13:52:56;16.30;99.90
55091;DHT22;40985;53.180;5.800;2023-07-22T13:55:21;16.20;99.90
55091;DHT22;40985;53.180;5.800;2023-07-22T13:57:47;16.20;99.90
55091;DHT22;40985;53.180;5.800;2023-07-22T14:00:13;16.30;99.90
55091;DHT22;40985;53.180;5.800;2023-07-22T14:02:40;16.30;99.90
55091;DHT22;40985;53.180;5.800;2023-07-22T14:05:06;16.20;99.90
55091;DHT22;40985;53.180;5.800;2023-07-22T14:07:32;16.20;99.90
55091;DHT22;40985;53.180;5.800;2023-07-22T14:09:58;16.20;99.90
55091;DHT22;40985;53.180;5.800;2023-07-22T14:12:24;16.10;99.90
55091;DHT22;40985;53.180;5.800;2023-07-22T14:14:50;16.10;99.90
55091;DHT22;40985;53.180;5.800;2023-07-22T14:17:15;16.20;99.90
55091;DHT22;40985;53.180;5.800;2023-07-22T14:19:41;16.30;99.90
55091;DHT22;40985;53.180;5.800;2023-07-22T14:22:07;16.30;99.90
55091;DHT22;40985;53.180;5.800;2023-07-22T14:24:34;16.40;99.90
55091;DHT22;40985;53.180;5.800;2023-07-22T14:27:00;16.40;99.90
55091;DHT22;40985;53.180;5.800;2023-07-22T14:29:25;16.60;99.90
55091;DHT22;40985;53.180;5.800;2023-07-22T14:31:51;16.90;99.90
55091;DHT22;40985;53.180;5.800;2023-07-22T14:34:17;17.10;99.90
55091;DHT22;40985;53.180;5.800;2023-07-22T14:36:43;17.20;99.90
55091;DHT22;40985;53.180;5.800;2023-07-22T14:39:09;17.10;99.90
55091;DHT22;40985;53.180;5.800;2023-07-22T14:41:35;17.10;99.90
55091;DHT22;40985;53.180;5.800;2023-07-22T14:44:01;17.10;99.90
55091;DHT22;40985;53.180;5.800;2023-07-22T14:46:26;17.20;99.90
55091;DHT22;40985;53.180;5.800;2023-07-22T14:48:52;17.10;99.90
55091;DHT22;40985;53.180;5.800;2023-07-22T14:51:18;17.10;99.90
55091;DHT22;40985;53.180;5.800;2023-07-22T14:53:44;17.00;99.90
55091;DHT22;40985;53.180;5.800;2023-07-22T14:56:09;17.00;99.90
55091;DHT22;40985;53.180;5.800;2023-07-22T14:58:35;16.80;99.90
55091;DHT22;40985;53.180;5.800;2023-07-22T15:01:00;16.80;99.90
55091;DHT22;40985;53.180;5.800;2023-07-22T15:03:26;16.80;99.90
55091;DHT22;40985;53.180;5.800;2023-07-22T15:05:52;16.80;99.90
55091;DHT22;40985;53.180;5.800;2023-07-22T15:08:18;16.70;99.90
55091;DHT22;40985;53.180;5.800;2023-07-22T15:10:43;16.80;99.90
55091;DHT22;40985;53.180;5.800;2023-07-22T15:13:09;16.70;99.90
55091;DHT22;40985;53.180;5.800;2023-07-22T15:15:35;16.70;99.90
55091;DHT22;40985;53.180;5.800;2023-07-22T15:18:00;16.60;99.90
55091;DHT22;40985;53.180;5.800;2023-07-22T15:20:26;16.60;99.90
55091;DHT22;40985;53.180;5.800;2023-07-22T15:22:52;16.50;99.90
55091;DHT22;40985;53.180;5.800;2023-07-22T15:25:18;16.50;99.90
55091;DHT22;40985;53.180;5.800;2023-07-22T15:27:44;16.40;99.90
55091;DHT22;40985;53.180;5.800;2023-07-22T15:30:10;16.40;99.90
55091;DHT22;40985;53.180;5.800;2023-07-22T15:32:36;16.40;99.90
55091;DHT22;40985;53.180;5.800;2023-07-22T15:35:02;16.30;99.90
55091;DHT22;40985;53.180;5.800;2023-07-22T15:37:28;16.40;99.90
55091;DHT22;40985;53.180;5.800;2023-07-22T15:39:53;16.40;99.90
55091;DHT22;40985;53.180;5.800;2023-07-22T15:42:19;16.50;99.90
55091;DHT22;40985;53.180;5.800;2023-07-22T15:44:45;16.50;99.90
55091;DHT22;40985;53.180;5.800;2023-07-22T15:47:10;16.50;99.90